Time;durP1;ratioP1;P1;durP2;ratioP2;P2;SDS_P1;SDS_P2;PMS_P1;PMS_P2;Temp;Humidity;BMP_temperature;BMP_pressure;BME280_temperature;BME280_humidity;BME280_pressure;Samples;Min_cycle;Max_cycle;Signal;HPM_P1;HPM_P2
2023/01/02 00:01:30;;;;;;;;;;;;;;;10.88;85.92;102264.03;5008639;28;19925;-79
2023/01/02 00:04:14;;;;;;;;;;;;;;;10.91;86.04;102258.06;5011647;28;19918;-79
2023/01/02 00:06:59;;;;;;;;;;;;;;;10.94;85.64;102265.66;5015252;28;19917;-80
2023/01/02 00:09:43;;;;;;;;;;;;;;;11.02;85.30;102261.53;5016863;28;19917;-80
2023/01/02 00:12:28;;;;;;;;;;;;;;;11.03;85.09;102261.25;5015431;28;19918;-80
2023/01/02 00:15:12;;;;;;;;;;;;;;;11.05;85.01;102258.25;5011342;28;20305;-80
2023/01/02 00:17:57;;;;;;;;;;;;;;;11.07;85.03;102248.69;5010031;28;19925;-79
2023/01/02 00:20:41;;;;;;;;;;;;;;;11.07;84.94;102256.06;5014424;28;19922;-79
2023/01/02 00:23:26;;;;;;;;;;;;;;;10.95;85.66;102247.41;5013042;28;19918;-80
2023/01/02 00:26:10;;;;;;;;;;;;;;;11.01;85.82;102246.31;5012055;28;19918;-79
2023/01/02 00:28:55;;;;;;;;;;;;;;;10.99;85.55;102245.75;5012305;28;19925;-80
2023/01/02 00:31:39;;;;;;;;;;;;;;;10.96;85.97;102238.16;5010839;28;20396;-79
2023/01/02 00:34:23;;;;;;;;;;;;;;;10.92;85.69;102235.16;5017408;28;19918;-80
2023/01/02 00:37:08;;;;;;;;;;;;;;;10.99;85.67;102243.84;5021738;28;19918;-79
2023/01/02 00:39:52;;;;;;;;;;;;;;;11.01;85.53;102241.69;5024676;28;19921;-80
2023/01/02 00:42:37;;;;;;;;;;;;;;;11.06;85.49;102232.66;5009674;28;20324;-80
2023/01/02 00:45:21;;;;;;;;;;;;;;;11.07;84.99;102229.63;5004421;28;20393;-79
2023/01/02 00:48:06;;;;;;;;;;;;;;;11.02;85.31;102229.66;5005534;28;19925;-80
2023/01/02 00:50:50;;;;;;;;;;;;;;;10.97;85.57;102235.13;5002844;28;19921;-80
2023/01/02 00:53:36;;;;;;;;;;;;;;;10.73;86.51;102224.09;5020357;28;19917;-80
2023/01/02 00:56:20;;;;;;;;;;;;;;;10.75;87.15;102226.56;5023297;28;19921;-80
2023/01/02 00:59:05;;;;;;;;;;;;;;;10.86;86.70;102228.16;5022800;28;19918;-80
2023/01/02 01:01:49;;;;;;;;;;;;;;;10.84;86.26;102224.88;5026294;28;20308;-79
2023/01/02 01:04:35;;;;;;;;;;;;;;;10.95;86.08;102231.09;5020797;28;19917;-80
2023/01/02 01:07:19;;;;;;;;;;;;;;;10.91;85.68;102230.03;5019386;28;19917;-80
2023/01/02 01:10:04;;;;;;;;;;;;;;;10.90;86.12;102234.66;5022758;28;19919;-80
2023/01/02 01:12:49;;;;;;;;;;;;;;;10.73;86.71;102231.47;5017008;28;19917;-80
2023/01/02 01:15:33;;;;;;;;;;;;;;;10.87;86.43;102237.91;5002346;28;19921;-80
2023/01/02 01:18:18;;;;;;;;;;;;;;;10.94;86.10;102234.91;5000420;28;19918;-79
2023/01/02 01:21:07;;;;;;;;;;;;;;;10.98;85.66;102239.50;5001081;28;20381;-80
2023/01/02 01:23:53;;;;;;;;;;;;;;;10.81;85.27;102232.81;5008390;28;19917;-80
2023/01/02 01:26:38;;;;;;;;;;;;;;;10.78;85.88;102228.72;5020068;28;19921;-80
2023/01/02 01:29:22;;;;;;;;;;;;;;;10.73;86.57;102228.72;5024450;28;20308;-80
2023/01/02 01:32:06;;;;;;;;;;;;;;;10.67;86.79;102224.41;5015280;28;19917;-80
2023/01/02 01:34:51;;;;;;;;;;;;;;;10.52;86.79;102232.63;5001394;28;20305;-80
2023/01/02 01:37:38;;;;;;;;;;;;;;;10.50;87.96;102235.66;5001102;28;19921;-80
2023/01/02 01:40:22;;;;;;;;;;;;;;;10.41;87.95;102221.00;5000784;28;19922;-79
2023/01/02 01:43:13;;;;;;;;;;;;;;;10.42;88.24;102228.03;4999753;28;19918;-80
2023/01/02 01:45:57;;;;;;;;;;;;;;;10.53;87.96;102231.53;5000157;28;19922;-79
2023/01/02 01:48:42;;;;;;;;;;;;;;;10.55;87.84;102230.19;5000452;28;20377;-80
2023/01/02 01:51:28;;;;;;;;;;;;;;;10.74;86.87;102224.94;5000329;28;20537;-80
2023/01/02 01:54:14;;;;;;;;;;;;;;;10.91;86.42;102227.31;5004304;28;19917;-81
2023/01/02 01:57:03;;;;;;;;;;;;;;;10.96;85.90;102232.72;5000652;28;20397;-81
2023/01/02 01:59:48;;;;;;;;;;;;;;;11.02;85.54;102229.66;5000137;28;20389;-81
2023/01/02 02:02:33;;;;;;;;;;;;;;;10.96;85.70;102224.56;5007301;28;19918;-81
2023/01/02 02:05:20;;;;;;;;;;;;;;;11.02;85.52;102226.16;5019450;28;19921;-81
2023/01/02 02:08:19;;;;;;;;;;;;;;;11.08;85.22;102228.56;5021346;28;19917;-81
2023/01/02 02:11:03;;;;;;;;;;;;;;;11.03;85.40;102228.59;5024755;28;19918;-81
2023/01/02 02:13:49;;;;;;;;;;;;;;;10.93;85.85;102227.81;5008944;28;19922;-81
2023/01/02 02:16:52;;;;;;;;;;;;;;;11.00;85.64;102233.78;5001690;28;19918;-81
2023/01/02 02:19:55;;;;;;;;;;;;;;;10.82;85.71;102224.34;5001943;28;19921;-81
2023/01/02 02:22:52;;;;;;;;;;;;;;;10.92;86.50;102216.13;5002102;28;19917;-80
2023/01/02 02:25:39;;;;;;;;;;;;;;;10.97;85.86;102224.25;5019122;28;20389;-81
2023/01/02 02:28:24;;;;;;;;;;;;;;;10.98;86.13;102222.34;5022367;28;19918;-80
2023/01/02 02:31:08;;;;;;;;;;;;;;;10.98;85.86;102215.00;5017238;28;19918;-80
2023/01/02 02:33:56;;;;;;;;;;;;;;;10.99;85.91;102211.19;5020889;28;20381;-81
2023/01/02 02:36:40;;;;;;;;;;;;;;;10.95;86.25;102210.13;5020379;28;19917;-80
2023/01/02 02:39:33;;;;;;;;;;;;;;;10.96;85.91;102210.94;5032526;28;19917;-79
2023/01/02 02:42:27;;;;;;;;;;;;;;;10.86;86.30;102208.28;5010259;28;19922;-79
2023/01/02 02:45:28;;;;;;;;;;;;;;;10.61;87.75;102206.50;5017586;28;19917;-79
2023/01/02 02:48:22;;;;;;;;;;;;;;;10.53;89.08;102196.19;5017735;28;19917;-79
2023/01/02 02:51:10;;;;;;;;;;;;;;;10.71;88.21;102203.72;4999927;28;19918;-79
2023/01/02 02:53:57;;;;;;;;;;;;;;;10.50;88.22;102203.00;4999438;28;19918;-80
2023/01/02 02:56:42;;;;;;;;;;;;;;;10.39;89.38;102206.03;4999313;28;20381;-79
2023/01/02 02:59:27;;;;;;;;;;;;;;;10.32;89.64;102194.63;4999472;28;19926;-79
2023/01/02 03:02:14;;;;;;;;;;;;;;;10.45;90.36;102194.06;5018353;28;19918;-79
2023/01/02 03:05:00;;;;;;;;;;;;;;;10.57;89.70;102191.81;5019325;28;19921;-79
2023/01/02 03:07:48;;;;;;;;;;;;;;;10.56;89.11;102190.19;5020741;28;19918;-79
2023/01/02 03:10:48;;;;;;;;;;;;;;;10.64;89.22;102195.03;5018773;28;19917;-79
2023/01/02 03:13:50;;;;;;;;;;;;;;;10.55;89.48;102191.28;5022637;28;19918;-80
2023/01/02 03:16:37;;;;;;;;;;;;;;;10.55;90.28;102189.38;5019626;28;20389;-80
2023/01/02 03:19:27;;;;;;;;;;;;;;;10.63;89.89;102193.41;5021197;28;19917;-79
2023/01/02 03:22:18;;;;;;;;;;;;;;;10.64;89.60;102184.16;5016739;28;20388;-79
2023/01/02 03:25:03;;;;;;;;;;;;;;;10.69;89.41;102189.59;5018430;28;19917;-79
2023/01/02 03:27:49;;;;;;;;;;;;;;;10.74;88.88;102189.56;5018959;28;19917;-79
2023/01/02 03:30:36;;;;;;;;;;;;;;;10.88;88.41;102179.69;5020947;28;19917;-79
2023/01/02 03:33:24;;;;;;;;;;;;;;;10.94;87.90;102181.28;5013670;28;19918;-79
2023/01/02 03:36:12;;;;;;;;;;;;;;;10.89;88.01;102177.78;5045840;28;19917;-79
2023/01/02 03:39:01;;;;;;;;;;;;;;;10.79;88.41;102180.56;5019337;28;20380;-80
2023/01/02 03:41:49;;;;;;;;;;;;;;;10.66;88.77;102180.09;5011691;28;20381;-79
2023/01/02 03:44:36;;;;;;;;;;;;;;;10.73;88.93;102182.47;4998964;28;19918;-79
2023/01/02 03:47:39;;;;;;;;;;;;;;;10.60;89.56;102183.09;4999079;28;19917;-79
2023/01/02 03:50:30;;;;;;;;;;;;;;;10.70;89.60;102186.59;4998517;28;19918;-79
2023/01/02 03:53:15;;;;;;;;;;;;;;;10.78;88.86;102182.47;5030728;28;19918;-79
2023/01/02 03:56:05;;;;;;;;;;;;;;;10.73;88.28;102177.03;5017308;28;19921;-79
2023/01/02 03:58:59;;;;;;;;;;;;;;;10.72;89.53;102173.50;5017793;28;19917;-79
2023/01/02 04:01:46;;;;;;;;;;;;;;;10.61;89.23;102173.84;5018096;28;20328;-79
2023/01/02 04:04:50;;;;;;;;;;;;;;;10.70;89.31;102164.00;5012641;28;19918;-79
2023/01/02 04:07:40;;;;;;;;;;;;;;;10.76;89.39;102173.78;5018109;28;19917;-79
2023/01/02 04:10:26;;;;;;;;;;;;;;;10.82;88.76;102178.06;5017451;28;20389;-78
2023/01/02 04:13:16;;;;;;;;;;;;;;;10.84;88.30;102172.34;5011257;28;19917;-79
2023/01/02 04:16:02;;;;;;;;;;;;;;;10.85;88.29;102169.38;4997407;28;19918;-79
2023/01/02 04:18:50;;;;;;;;;;;;;;;10.85;88.39;102174.00;4997482;28;19918;-79
2023/01/02 04:21:37;;;;;;;;;;;;;;;10.87;88.20;102180.75;4996542;28;19922;-79
2023/01/02 04:24:32;;;;;;;;;;;;;;;10.88;88.31;102170.69;5007714;28;19917;-79
2023/01/02 04:27:24;;;;;;;;;;;;;;;10.74;88.18;102175.94;5014965;28;19917;-80
2023/01/02 04:30:09;;;;;;;;;;;;;;;10.63;89.54;102175.19;5019115;28;20232;-80
2023/01/02 04:32:57;;;;;;;;;;;;;;;10.72;89.15;102173.50;5000499;28;20369;-79
2023/01/02 04:35:41;;;;;;;;;;;;;;;10.69;89.08;102171.34;5002953;28;20292;-79
2023/01/02 04:38:26;;;;;;;;;;;;;;;10.73;89.30;102164.25;5002942;28;20401;-79
2023/01/02 04:41:25;;;;;;;;;;;;;;;10.74;88.94;102159.63;5002382;28;19922;-79
2023/01/02 04:44:10;;;;;;;;;;;;;;;10.69;89.13;102165.91;5022906;28;19918;-79
2023/01/02 04:46:54;;;;;;;;;;;;;;;10.48;89.99;102166.28;5021375;28;19917;-79
2023/01/02 04:49:38;;;;;;;;;;;;;;;10.32;91.51;102170.16;5020750;28;19925;-79
2023/01/02 04:52:23;;;;;;;;;;;;;;;10.34;92.17;102165.25;5006593;28;19918;-78
2023/01/02 04:55:08;;;;;;;;;;;;;;;10.50;91.43;102175.00;5019730;28;19921;-77
2023/01/02 04:57:52;;;;;;;;;;;;;;;10.58;91.52;102171.69;5018167;28;19917;-78
2023/01/02 05:00:37;;;;;;;;;;;;;;;10.51;90.87;102176.63;5019339;28;20332;-78
2023/01/02 05:03:22;;;;;;;;;;;;;;;10.49;90.96;102187.78;5017926;28;19917;-78
2023/01/02 05:06:06;;;;;;;;;;;;;;;10.53;90.50;102177.13;5018320;28;19918;-78
2023/01/02 05:08:51;;;;;;;;;;;;;;;10.45;92.38;102183.16;5000937;28;19918;-78
2023/01/02 05:11:35;;;;;;;;;;;;;;;10.41;91.58;102182.94;5000300;28;19917;-79
2023/01/02 05:14:20;;;;;;;;;;;;;;;10.42;92.10;102189.16;5015245;28;19917;-79
2023/01/02 05:17:04;;;;;;;;;;;;;;;10.42;91.99;102183.72;5036133;28;19917;-78
2023/01/02 05:19:49;;;;;;;;;;;;;;;10.54;91.17;102186.94;5014124;28;19921;-78
2023/01/02 05:25:37;;;;;;;;;;;;;;;10.49;91.78;102190.50;5000412;28;19926;-78
2023/01/02 05:28:21;;;;;;;;;;;;;;;10.56;91.15;102198.38;5020132;28;19918;-79
2023/01/02 05:31:06;;;;;;;;;;;;;;;10.50;91.19;102192.13;5020252;28;19918;-79
2023/01/02 05:33:51;;;;;;;;;;;;;;;10.57;91.59;102191.81;4999579;28;19921;-78
2023/01/02 05:36:35;;;;;;;;;;;;;;;10.50;91.07;102191.31;4999553;28;19918;-78
2023/01/02 05:39:20;;;;;;;;;;;;;;;10.50;91.15;102196.75;5008029;28;19917;-78
2023/01/02 05:42:04;;;;;;;;;;;;;;;10.53;90.94;102201.63;5010020;28;19922;-79
2023/01/02 05:44:50;;;;;;;;;;;;;;;10.49;90.95;102200.56;5024496;28;19921;-79
2023/01/02 05:47:34;;;;;;;;;;;;;;;10.51;91.25;102199.19;5029401;28;19917;-79
2023/01/02 05:50:20;;;;;;;;;;;;;;;10.47;90.73;102208.16;5022804;28;19917;-78
2023/01/02 05:53:05;;;;;;;;;;;;;;;10.27;92.20;102201.72;5015283;28;19917;-78
2023/01/02 05:55:49;;;;;;;;;;;;;;;10.27;92.86;102203.59;5021058;28;19917;-78
2023/01/02 05:58:35;;;;;;;;;;;;;;;10.23;93.10;102214.22;5023559;28;19918;-78
2023/01/02 06:01:21;;;;;;;;;;;;;;;10.19;93.23;102215.06;5021498;28;19922;-77
2023/01/02 06:04:06;;;;;;;;;;;;;;;10.28;92.78;102216.94;5006710;28;20304;-78
2023/01/02 06:06:50;;;;;;;;;;;;;;;10.22;92.85;102211.78;5003552;28;19921;-77
2023/01/02 06:09:34;;;;;;;;;;;;;;;10.06;93.34;102216.41;5018717;28;19917;-78
2023/01/02 06:12:20;;;;;;;;;;;;;;;10.15;93.55;102222.13;5020892;28;19917;-78
2023/01/02 06:15:05;;;;;;;;;;;;;;;10.31;93.16;102226.44;5020228;28;19918;-77
2023/01/02 06:17:50;;;;;;;;;;;;;;;10.36;92.72;102225.63;5018818;28;19921;-77
2023/01/02 06:20:34;;;;;;;;;;;;;;;10.27;93.33;102225.34;5018294;28;19921;-78
2023/01/02 06:23:19;;;;;;;;;;;;;;;10.43;92.34;102228.84;5012400;28;19921;-76
2023/01/02 06:26:10;;;;;;;;;;;;;;;10.36;92.05;102233.78;5018272;28;19917;-78
2023/01/02 06:28:56;;;;;;;;;;;;;;;10.43;92.42;102234.28;5016923;28;20384;-78
2023/01/02 06:31:41;;;;;;;;;;;;;;;10.49;92.42;102231.28;5018794;28;19918;-78
2023/01/02 06:34:25;;;;;;;;;;;;;;;10.47;92.34;102230.75;5011977;28;19918;-78
2023/01/02 06:37:09;;;;;;;;;;;;;;;10.31;92.18;102228.38;5013911;28;19922;-78
2023/01/02 06:39:54;;;;;;;;;;;;;;;10.32;93.02;102238.13;5012257;28;19917;-78
2023/01/02 06:42:38;;;;;;;;;;;;;;;10.35;93.78;102226.72;5018414;28;19922;-80
2023/01/02 06:45:23;;;;;;;;;;;;;;;10.43;93.65;102235.09;5015433;28;19918;-77
2023/01/02 06:48:08;;;;;;;;;;;;;;;10.38;92.17;102240.56;5018785;28;19918;-77
2023/01/02 06:50:53;;;;;;;;;;;;;;;10.38;93.08;102237.84;5019760;28;20384;-77
2023/01/02 06:53:38;;;;;;;;;;;;;;;10.28;92.58;102238.69;5018104;28;19918;-77
2023/01/02 06:56:22;;;;;;;;;;;;;;;10.23;92.57;102238.69;5018114;28;20016;-78
2023/01/02 06:59:08;;;;;;;;;;;;;;;10.16;92.60;102240.88;5018736;28;20412;-78
2023/01/02 07:01:53;;;;;;;;;;;;;;;10.16;93.11;102240.06;5014289;28;19921;-78
2023/01/02 07:04:37;;;;;;;;;;;;;;;10.25;92.88;102238.44;5019246;28;19917;-78
2023/01/02 07:07:22;;;;;;;;;;;;;;;10.31;92.71;102244.69;5018592;28;19917;-78
2023/01/02 07:10:07;;;;;;;;;;;;;;;10.32;92.36;102240.84;5018777;28;19918;-78
2023/01/02 07:12:51;;;;;;;;;;;;;;;10.41;91.67;102245.47;5002101;28;19918;-78
2023/01/02 07:15:38;;;;;;;;;;;;;;;10.39;92.25;102238.66;5017593;28;20470;-78
2023/01/02 07:18:22;;;;;;;;;;;;;;;10.48;91.71;102237.00;5017093;28;20392;-77
2023/01/02 07:21:09;;;;;;;;;;;;;;;10.51;90.98;102239.19;5033991;28;20297;-79
2023/01/02 07:23:53;;;;;;;;;;;;;;;10.53;90.28;102240.50;5009135;28;19918;-78
2023/01/02 07:26:38;;;;;;;;;;;;;;;10.56;90.27;102239.97;5016632;28;19917;-78
2023/01/02 07:29:23;;;;;;;;;;;;;;;10.54;90.13;102241.34;5023282;28;19917;-78
2023/01/02 07:32:07;;;;;;;;;;;;;;;10.53;89.70;102245.97;5014936;28;19918;-78
2023/01/02 07:34:51;;;;;;;;;;;;;;;10.54;89.88;102246.78;5014734;28;19918;-78
2023/01/02 07:37:36;;;;;;;;;;;;;;;10.50;89.83;102249.25;5023917;28;19939;-78
2023/01/02 07:40:20;;;;;;;;;;;;;;;10.60;89.23;102245.66;5022117;28;20428;-77
2023/01/02 07:43:05;;;;;;;;;;;;;;;10.65;89.34;102249.19;5020096;28;20312;-77
2023/01/02 07:45:49;;;;;;;;;;;;;;;10.75;88.74;102252.97;5021887;28;19921;-77
2023/01/02 07:48:33;;;;;;;;;;;;;;;10.81;88.29;102251.84;5020461;28;20396;-78
2023/01/02 07:51:18;;;;;;;;;;;;;;;10.70;88.43;102249.16;5020271;28;19918;-77
2023/01/02 07:54:02;;;;;;;;;;;;;;;10.77;88.56;102261.66;5015220;28;19918;-78
2023/01/02 07:56:47;;;;;;;;;;;;;;;10.74;88.52;102273.91;5001535;28;20297;-78
2023/01/02 07:59:32;;;;;;;;;;;;;;;10.79;87.59;102271.16;5014130;28;19918;-79
2023/01/02 08:02:16;;;;;;;;;;;;;;;10.84;87.21;102273.88;5018309;28;20392;-79
2023/01/02 08:05:01;;;;;;;;;;;;;;;10.81;87.70;102274.44;5019039;28;19918;-79
2023/01/02 08:07:45;;;;;;;;;;;;;;;10.78;87.82;102280.41;5022030;28;19917;-78
2023/01/02 08:10:30;;;;;;;;;;;;;;;10.71;88.41;102279.91;5026713;28;19918;-78
2023/01/02 08:13:14;;;;;;;;;;;;;;;10.82;88.22;102277.97;5019658;28;20392;-77
2023/01/02 08:16:02;;;;;;;;;;;;;;;10.97;87.59;102275.97;5015107;28;19926;-77
2023/01/02 08:18:50;;;;;;;;;;;;;;;11.00;86.88;102282.78;5021479;28;19921;-76
2023/01/02 08:21:34;;;;;;;;;;;;;;;11.01;86.92;102279.78;5014999;28;19921;-77
2023/01/02 08:24:19;;;;;;;;;;;;;;;11.02;86.62;102284.13;5017416;28;19917;-77
2023/01/02 08:27:03;;;;;;;;;;;;;;;10.97;87.31;102294.22;5017291;28;19921;-77
2023/01/02 08:29:47;;;;;;;;;;;;;;;10.86;86.97;102288.03;5035663;28;19918;-77
2023/01/02 08:32:36;;;;;;;;;;;;;;;10.89;87.84;102292.06;5017033;28;19917;-77
2023/01/02 08:35:21;;;;;;;;;;;;;;;10.93;87.34;102293.97;5037648;28;20292;-78
2023/01/02 08:38:06;;;;;;;;;;;;;;;11.01;86.99;102285.22;5027538;28;19917;-77
2023/01/02 08:40:50;;;;;;;;;;;;;;;11.09;86.56;102291.97;5022195;28;20300;-78
2023/01/02 08:43:36;;;;;;;;;;;;;;;11.09;86.41;102292.81;5020081;28;20264;-78
2023/01/02 08:46:20;;;;;;;;;;;;;;;11.12;86.12;102292.22;5025047;28;20304;-78
2023/01/02 08:49:05;;;;;;;;;;;;;;;11.16;86.05;102297.94;5024686;28;19917;-78
2023/01/02 08:51:49;;;;;;;;;;;;;;;11.22;86.20;102293.28;5020162;28;19921;-78
2023/01/02 08:54:34;;;;;;;;;;;;;;;11.24;85.61;102291.09;5010112;28;19921;-77
2023/01/02 08:57:19;;;;;;;;;;;;;;;11.14;84.86;102283.78;5016832;28;19917;-77
2023/01/02 09:00:03;;;;;;;;;;;;;;;11.22;85.45;102290.56;5014318;28;19943;-76
2023/01/02 09:02:48;;;;;;;;;;;;;;;11.28;84.84;102301.13;5008774;28;20479;-77
2023/01/02 09:05:33;;;;;;;;;;;;;;;11.35;84.55;102295.38;5014860;28;19937;-77
2023/01/02 09:08:17;;;;;;;;;;;;;;;11.38;84.16;102300.25;5007117;28;19917;-77
2023/01/02 09:11:09;;;;;;;;;;;;;;;11.34;84.58;102300.00;5015688;28;19917;-76
2023/01/02 09:13:54;;;;;;;;;;;;;;;11.44;84.63;102299.13;5022754;28;19918;-76
2023/01/02 09:16:38;;;;;;;;;;;;;;;11.49;84.28;102307.28;5012465;28;19918;-79
2023/01/02 09:19:23;;;;;;;;;;;;;;;11.52;83.71;102301.28;5016842;28;19918;-77
2023/01/02 09:22:08;;;;;;;;;;;;;;;11.57;83.46;102304.78;5016805;28;19922;-77
2023/01/02 09:24:52;;;;;;;;;;;;;;;11.55;83.44;102309.69;5009615;28;19918;-77
2023/01/02 09:27:37;;;;;;;;;;;;;;;11.28;84.53;102303.84;5014838;28;19917;-77
2023/01/02 09:30:21;;;;;;;;;;;;;;;11.26;84.70;102297.91;5012354;28;20395;-77
2023/01/02 09:33:07;;;;;;;;;;;;;;;11.29;85.67;102296.50;5012074;28;19918;-77
2023/01/02 09:35:52;;;;;;;;;;;;;;;11.35;85.26;102306.28;5011026;28;19922;-77
2023/01/02 09:38:37;;;;;;;;;;;;;;;11.12;86.23;102299.59;5011024;28;19918;-77
2023/01/02 09:41:27;;;;;;;;;;;;;;;11.31;85.62;102289.69;5004368;28;19922;-77
2023/01/02 09:44:16;;;;;;;;;;;;;;;11.13;85.98;102293.88;5011865;28;19921;-77
2023/01/02 09:47:06;;;;;;;;;;;;;;;11.10;87.11;102299.88;5017614;28;19922;-77
2023/01/02 09:49:53;;;;;;;;;;;;;;;11.00;87.36;102299.94;5007857;28;19918;-78
2023/01/02 09:52:40;;;;;;;;;;;;;;;11.08;86.88;102290.34;5035788;28;19918;-77
2023/01/02 09:55:36;;;;;;;;;;;;;;;11.13;86.80;102288.41;5015035;28;20385;-77
2023/01/02 09:58:47;;;;;;;;;;;;;;;11.09;87.22;102284.63;5013347;28;19917;-77
2023/01/02 10:01:32;;;;;;;;;;;;;;;10.95;87.25;102274.63;5014161;28;20390;-78
2023/01/02 10:04:28;;;;;;;;;;;;;;;11.18;86.69;102278.59;5006484;28;19918;-77
2023/01/02 10:07:31;;;;;;;;;;;;;;;11.14;86.64;102270.19;5013500;28;20385;-77
2023/01/02 10:10:20;;;;;;;;;;;;;;;11.11;87.24;102274.28;5011710;28;19918;-76
2023/01/02 10:13:23;;;;;;;;;;;;;;;11.17;86.52;102268.81;5007633;28;19918;-77
2023/01/02 10:16:11;;;;;;;;;;;;;;;11.07;87.28;102269.69;5008526;28;19917;-77
2023/01/02 10:18:57;;;;;;;;;;;;;;;11.10;87.08;102267.22;5024801;28;19918;-77
2023/01/02 10:21:45;;;;;;;;;;;;;;;11.20;86.56;102271.78;5004966;28;19925;-79
2023/01/02 10:24:36;;;;;;;;;;;;;;;11.50;85.66;102254.44;5007934;28;20312;-77
2023/01/02 10:27:24;;;;;;;;;;;;;;;11.83;83.36;102250.94;5011322;28;19922;-77
2023/01/02 10:30:20;;;;;;;;;;;;;;;11.80;83.01;102245.22;4999535;28;19917;-76
2023/01/02 10:33:29;;;;;;;;;;;;;;;11.69;83.30;102247.19;5023962;28;19917;-77
2023/01/02 10:36:22;;;;;;;;;;;;;;;11.80;82.66;102246.03;4995840;28;19918;-77
2023/01/02 10:39:08;;;;;;;;;;;;;;;11.82;81.70;102237.59;4996249;28;19937;-76
2023/01/02 10:41:55;;;;;;;;;;;;;;;11.74;81.90;102228.09;4993713;28;20296;-76
2023/01/02 10:44:40;;;;;;;;;;;;;;;11.91;81.72;102227.69;4997881;28;19922;-77
2023/01/02 10:47:33;;;;;;;;;;;;;;;12.07;80.81;102236.53;4998010;28;19918;-77
2023/01/02 10:50:22;;;;;;;;;;;;;;;12.03;81.09;102232.75;5009007;28;19918;-77
2023/01/02 10:53:18;;;;;;;;;;;;;;;12.08;80.64;102238.16;4997561;28;19921;-77
2023/01/02 10:56:04;;;;;;;;;;;;;;;11.98;80.56;102234.44;5010661;28;19918;-77
2023/01/02 10:58:50;;;;;;;;;;;;;;;11.95;80.94;102232.28;5013564;28;19918;-77
2023/01/02 11:01:47;;;;;;;;;;;;;;;11.66;82.71;102220.53;5011319;28;19921;-77
2023/01/02 11:04:31;;;;;;;;;;;;;;;11.87;81.86;102219.28;5003733;28;19918;-77
2023/01/02 11:07:24;;;;;;;;;;;;;;;11.76;82.38;102211.47;5001111;28;19918;-77
2023/01/02 11:10:21;;;;;;;;;;;;;;;11.82;81.99;102208.44;5003630;28;19925;-77
2023/01/02 11:13:11;;;;;;;;;;;;;;;11.62;83.00;102213.22;5012494;28;19918;-77
2023/01/02 11:15:59;;;;;;;;;;;;;;;11.58;83.71;102207.50;5007356;28;19917;-77
2023/01/02 11:18:51;;;;;;;;;;;;;;;11.61;82.72;102193.31;5015514;28;19917;-76
2023/01/02 11:21:39;;;;;;;;;;;;;;;11.51;82.93;102190.69;5025956;28;20401;-77
2023/01/02 11:24:27;;;;;;;;;;;;;;;11.44;84.26;102198.34;5011835;28;19917;-76
2023/01/02 11:27:11;;;;;;;;;;;;;;;11.43;84.58;102194.00;5007946;28;19917;-77
2023/01/02 11:29:56;;;;;;;;;;;;;;;11.52;84.40;102193.13;5013446;28;19917;-76
2023/01/02 11:32:40;;;;;;;;;;;;;;;11.39;84.27;102188.31;5014919;28;19929;-76
2023/01/02 11:35:32;;;;;;;;;;;;;;;11.26;85.70;102191.69;5008941;28;19918;-77
2023/01/02 11:38:19;;;;;;;;;;;;;;;11.37;85.46;102181.53;5005100;28;19918;-77
2023/01/02 11:41:03;;;;;;;;;;;;;;;11.42;85.00;102189.66;5012642;28;20380;-76
2023/01/02 11:43:55;;;;;;;;;;;;;;;11.33;85.89;102186.72;5017270;28;19922;-76
2023/01/02 11:46:39;;;;;;;;;;;;;;;11.39;86.10;102182.06;5011783;28;19918;-77
2023/01/02 11:49:25;;;;;;;;;;;;;;;11.32;85.75;102176.13;5002528;28;19918;-77
2023/01/02 11:52:13;;;;;;;;;;;;;;;11.34;85.65;102173.91;5014901;28;19922;-77
2023/01/02 11:55:09;;;;;;;;;;;;;;;11.33;85.61;102175.81;5011767;28;19943;-76
2023/01/02 11:58:17;;;;;;;;;;;;;;;11.33;85.58;102172.28;5005509;28;19918;-76
2023/01/02 12:01:01;;;;;;;;;;;;;;;11.25;86.18;102164.75;5029765;28;19921;-76
2023/01/02 12:03:48;;;;;;;;;;;;;;;11.28;86.15;102158.72;5013651;28;19921;-75
2023/01/02 12:06:52;;;;;;;;;;;;;;;11.40;85.82;102161.91;5011921;28;19917;-76
2023/01/02 12:09:37;;;;;;;;;;;;;;;11.30;85.11;102157.34;5010469;28;19917;-76
2023/01/02 12:12:44;;;;;;;;;;;;;;;11.37;85.39;102157.03;5012351;28;20300;-75
2023/01/02 12:15:38;;;;;;;;;;;;;;;11.38;85.35;102148.56;5012049;28;19918;-75
2023/01/02 12:18:35;;;;;;;;;;;;;;;11.56;84.13;102145.13;5016364;28;20288;-75
2023/01/02 12:21:23;;;;;;;;;;;;;;;11.67;83.21;102145.84;5011638;28;19918;-75
2023/01/02 12:24:20;;;;;;;;;;;;;;;11.63;83.02;102136.59;5014168;28;19917;-75
2023/01/02 12:27:05;;;;;;;;;;;;;;;11.52;83.08;102133.19;5016512;28;20400;-75
2023/01/02 12:29:52;;;;;;;;;;;;;;;11.36;85.49;102130.88;5006380;28;20316;-76
2023/01/02 12:33:02;;;;;;;;;;;;;;;11.38;84.85;102137.66;5010337;28;19918;-75
2023/01/02 12:35:56;;;;;;;;;;;;;;;11.14;85.27;102132.13;5008336;28;19922;-75
2023/01/02 12:39:03;;;;;;;;;;;;;;;11.24;85.69;102133.97;5009374;28;19921;-75
2023/01/02 12:41:48;;;;;;;;;;;;;;;11.31;85.31;102130.94;5013683;28;19922;-74
2023/01/02 12:44:52;;;;;;;;;;;;;;;11.49;84.69;102132.94;5013191;28;19918;-74
2023/01/02 12:47:55;;;;;;;;;;;;;;;11.42;84.37;102129.75;5006835;28;19918;-74
2023/01/02 12:50:40;;;;;;;;;;;;;;;11.53;83.50;102129.34;5006819;28;19921;-74
2023/01/02 12:53:30;;;;;;;;;;;;;;;11.47;83.99;102127.78;4994542;28;19917;-76
2023/01/02 12:56:21;;;;;;;;;;;;;;;11.51;84.30;102119.84;4995207;28;20389;-76
2023/01/02 12:59:05;;;;;;;;;;;;;;;11.55;84.15;102123.63;5009115;28;19917;-76
2023/01/02 13:01:50;;;;;;;;;;;;;;;11.58;83.87;102117.59;5007372;28;19930;-76
2023/01/02 13:04:34;;;;;;;;;;;;;;;11.54;83.53;102122.00;5014245;28;19917;-77
2023/01/02 13:07:21;;;;;;;;;;;;;;;11.62;83.48;102118.66;5010424;28;19922;-77
2023/01/02 13:10:11;;;;;;;;;;;;;;;11.73;83.70;102113.94;5010307;28;19918;-76
2023/01/02 13:12:57;;;;;;;;;;;;;;;11.67;83.20;102113.16;5014911;28;20361;-77
2023/01/02 13:15:44;;;;;;;;;;;;;;;11.61;83.92;102116.22;5004401;28;19922;-77
2023/01/02 13:18:43;;;;;;;;;;;;;;;11.61;84.11;102105.31;5010049;28;19925;-77
2023/01/02 13:21:47;;;;;;;;;;;;;;;11.56;83.17;102098.00;5020068;28;20392;-77
2023/01/02 13:24:32;;;;;;;;;;;;;;;11.48;84.04;102101.34;5006388;28;20397;-78
2023/01/02 13:27:17;;;;;;;;;;;;;;;11.43;84.89;102091.31;5014620;28;20301;-77
2023/01/02 13:30:02;;;;;;;;;;;;;;;11.29;85.55;102098.53;5014355;28;19939;-76
2023/01/02 13:32:46;;;;;;;;;;;;;;;11.38;85.21;102096.00;5039869;28;19926;-77
2023/01/02 13:35:34;;;;;;;;;;;;;;;11.18;86.44;102096.16;5014848;28;19922;-77
2023/01/02 13:38:20;;;;;;;;;;;;;;;11.33;86.57;102091.41;5010153;28;19917;-77
2023/01/02 13:41:04;;;;;;;;;;;;;;;11.29;86.43;102084.09;5008807;28;19918;-77
2023/01/02 13:43:51;;;;;;;;;;;;;;;11.31;86.37;102077.28;5006916;28;20397;-77
2023/01/02 13:46:37;;;;;;;;;;;;;;;11.20;86.82;102092.06;5013849;28;19921;-77
2023/01/02 13:49:21;;;;;;;;;;;;;;;11.29;86.41;102082.19;5014890;28;20384;-77
2023/01/02 13:52:12;;;;;;;;;;;;;;;11.34;86.01;102086.78;5018562;28;19922;-77
2023/01/02 13:55:23;;;;;;;;;;;;;;;11.37;85.68;102087.03;5036386;28;20319;-76
2023/01/02 13:58:12;;;;;;;;;;;;;;;11.34;85.79;102081.31;5012420;28;19918;-76
2023/01/02 14:00:56;;;;;;;;;;;;;;;11.23;86.88;102085.22;5011912;28;19917;-76
2023/01/02 14:03:40;;;;;;;;;;;;;;;11.34;86.30;102084.88;5012970;28;19921;-76
2023/01/02 14:06:25;;;;;;;;;;;;;;;11.25;86.57;102083.06;5004133;28;19917;-76
2023/01/02 14:09:12;;;;;;;;;;;;;;;11.22;86.60;102083.63;5016932;28;19917;-76
2023/01/02 14:11:58;;;;;;;;;;;;;;;11.12;86.20;102085.31;5033119;28;19917;-76
2023/01/02 14:14:45;;;;;;;;;;;;;;;11.19;86.75;102087.72;5025483;28;19917;-76
2023/01/02 14:17:39;;;;;;;;;;;;;;;11.10;87.05;102086.72;5013218;28;19917;-76
2023/01/02 14:20:29;;;;;;;;;;;;;;;11.11;87.79;102099.25;5013950;28;20109;-76
2023/01/02 14:23:26;;;;;;;;;;;;;;;11.12;87.68;102087.25;5013291;28;20304;-76